sensor_id;sensor_type;location;lat;lon;timestamp;pressure;altitude;pressure_sealevel;temperature;humidity
61488;BME280;47351;53.326;-6.298;2023-02-22T00:01:21;100644.21;;;8.18;84.08
61488;BME280;47351;53.326;-6.298;2023-02-22T00:04:34;100647.36;;;8.14;84.46
61488;BME280;47351;53.326;-6.298;2023-02-22T00:07:43;100645.32;;;8.11;84.77
61488;BME280;47351;53.326;-6.298;2023-02-22T00:10:52;100639.80;;;8.10;85.09
61488;BME280;47351;53.326;-6.298;2023-02-22T00:14:01;100647.02;;;8.07;85.47
61488;BME280;47351;53.326;-6.298;2023-02-22T00:17:10;100654.92;;;8.04;85.89
61488;BME280;47351;53.326;-6.298;2023-02-22T00:20:20;100661.40;;;8.00;86.19
61488;BME280;47351;53.326;-6.298;2023-02-22T00:23:30;100679.82;;;7.90;85.86
61488;BME280;47351;53.326;-6.298;2023-02-22T00:26:38;100691.83;;;7.70;84.53
61488;BME280;47351;53.326;-6.298;2023-02-22T00:29:46;100696.02;;;7.50;84.08
61488;BME280;47351;53.326;-6.298;2023-02-22T00:32:55;100703.02;;;7.28;84.00
61488;BME280;47351;53.326;-6.298;2023-02-22T00:36:05;100714.93;;;7.08;83.96
61488;BME280;47351;53.326;-6.298;2023-02-22T00:39:13;100722.31;;;6.95;84.20
61488;BME280;47351;53.326;-6.298;2023-02-22T00:42:22;100728.14;;;6.81;84.30
61488;BME280;47351;53.326;-6.298;2023-02-22T00:45:31;100735.04;;;6.71;84.48
61488;BME280;47351;53.326;-6.298;2023-02-22T00:48:41;100736.62;;;6.61;84.56
61488;BME280;47351;53.326;-6.298;2023-02-22T00:51:49;100744.00;;;6.54;84.64
61488;BME280;47351;53.326;-6.298;2023-02-22T00:54:58;100750.54;;;6.47;84.71
61488;BME280;47351;53.326;-6.298;2023-02-22T00:58:07;100755.79;;;6.44;84.84
61488;BME280;47351;53.326;-6.298;2023-02-22T01:01:16;100764.61;;;6.40;84.76
61488;BME280;47351;53.326;-6.298;2023-02-22T01:04:25;100766.59;;;6.36;84.79
61488;BME280;47351;53.326;-6.298;2023-02-22T01:07:34;100764.66;;;6.32;84.90
61488;BME280;47351;53.326;-6.298;2023-02-22T01:10:43;100766.65;;;6.31;85.24
61488;BME280;47351;53.326;-6.298;2023-02-22T01:13:52;100771.88;;;6.28;85.16
61488;BME280;47351;53.326;-6.298;2023-02-22T01:17:02;100778.18;;;6.24;85.18
61488;BME280;47351;53.326;-6.298;2023-02-22T01:20:12;100790.20;;;6.21;85.26
61488;BME280;47351;53.326;-6.298;2023-02-22T01:23:21;100787.79;;;6.20;85.50
61488;BME280;47351;53.326;-6.298;2023-02-22T01:26:29;100787.34;;;6.15;85.38
61488;BME280;47351;53.326;-6.298;2023-02-22T01:29:38;100790.73;;;6.10;85.46
61488;BME280;47351;53.326;-6.298;2023-02-22T01:32:47;100800.60;;;6.09;85.66
61488;BME280;47351;53.326;-6.298;2023-02-22T01:35:58;100806.23;;;6.07;85.75
61488;BME280;47351;53.326;-6.298;2023-02-22T01:39:07;100812.52;;;6.04;85.80
61488;BME280;47351;53.326;-6.298;2023-02-22T01:42:17;100807.85;;;6.02;86.00
61488;BME280;47351;53.326;-6.298;2023-02-22T01:49:34;100811.38;;;5.96;85.93
61488;BME280;47351;53.326;-6.298;2023-02-22T01:52:44;100808.60;;;5.95;86.04
61488;BME280;47351;53.326;-6.298;2023-02-22T01:55:54;100809.15;;;5.95;86.22
61488;BME280;47351;53.326;-6.298;2023-02-22T01:59:05;100811.88;;;5.96;86.40
61488;BME280;47351;53.326;-6.298;2023-02-22T02:02:15;100814.43;;;5.98;86.51
61488;BME280;47351;53.326;-6.298;2023-02-22T02:05:26;100814.69;;;5.97;86.52
61488;BME280;47351;53.326;-6.298;2023-02-22T02:08:32;100815.48;;;5.98;86.73
61488;BME280;47351;53.326;-6.298;2023-02-22T02:11:43;100814.46;;;5.97;86.79
61488;BME280;47351;53.326;-6.298;2023-02-22T02:14:53;100815.80;;;5.96;86.91
61488;BME280;47351;53.326;-6.298;2023-02-22T02:18:22;100816.70;;;5.96;87.01
61488;BME280;47351;53.326;-6.298;2023-02-22T02:21:39;100818.94;;;5.97;87.33
61488;BME280;47351;53.326;-6.298;2023-02-22T02:24:55;100821.23;;;5.97;87.41
61488;BME280;47351;53.326;-6.298;2023-02-22T02:28:19;100824.25;;;5.99;87.48
61488;BME280;47351;53.326;-6.298;2023-02-22T02:34:46;100834.39;;;5.96;87.57
61488;BME280;47351;53.326;-6.298;2023-02-22T02:38:00;100835.80;;;5.92;87.57
61488;BME280;47351;53.326;-6.298;2023-02-22T02:41:11;100840.69;;;5.90;87.67
61488;BME280;47351;53.326;-6.298;2023-02-22T02:44:23;100841.32;;;5.89;87.58
61488;BME280;47351;53.326;-6.298;2023-02-22T02:47:34;100839.43;;;5.88;87.67
61488;BME280;47351;53.326;-6.298;2023-02-22T02:50:46;100843.77;;;5.88;87.75
61488;BME280;47351;53.326;-6.298;2023-02-22T02:53:55;100839.83;;;5.86;87.75
61488;BME280;47351;53.326;-6.298;2023-02-22T02:57:05;100841.49;;;5.85;87.74
61488;BME280;47351;53.326;-6.298;2023-02-22T03:00:17;100848.98;;;5.82;87.56
61488;BME280;47351;53.326;-6.298;2023-02-22T03:03:35;100846.20;;;5.79;87.50
61488;BME280;47351;53.326;-6.298;2023-02-22T03:06:52;100852.67;;;5.78;87.61
61488;BME280;47351;53.326;-6.298;2023-02-22T03:10:08;100857.02;;;5.74;87.45
61488;BME280;47351;53.326;-6.298;2023-02-22T03:13:23;100855.31;;;5.72;87.50
61488;BME280;47351;53.326;-6.298;2023-02-22T03:16:38;100854.73;;;5.72;87.67
61488;BME280;47351;53.326;-6.298;2023-02-22T03:19:52;100855.85;;;5.72;87.70
61488;BME280;47351;53.326;-6.298;2023-02-22T03:23:07;100853.92;;;5.71;87.89
61488;BME280;47351;53.326;-6.298;2023-02-22T03:26:24;100856.88;;;5.70;87.89
61488;BME280;47351;53.326;-6.298;2023-02-22T03:29:37;100857.52;;;5.69;87.90
61488;BME280;47351;53.326;-6.298;2023-02-22T03:32:48;100857.29;;;5.67;87.89
61488;BME280;47351;53.326;-6.298;2023-02-22T03:35:58;100856.55;;;5.65;87.96
61488;BME280;47351;53.326;-6.298;2023-02-22T03:39:10;100855.23;;;5.63;88.01
61488;BME280;47351;53.326;-6.298;2023-02-22T03:42:22;100860.31;;;5.63;87.98
61488;BME280;47351;53.326;-6.298;2023-02-22T03:45:32;100866.95;;;5.62;87.98
61488;BME280;47351;53.326;-6.298;2023-02-22T03:48:44;100870.30;;;5.59;88.02
61488;BME280;47351;53.326;-6.298;2023-02-22T03:51:56;100876.02;;;5.61;88.17
61488;BME280;47351;53.326;-6.298;2023-02-22T03:55:06;100877.08;;;5.61;88.08
61488;BME280;47351;53.326;-6.298;2023-02-22T03:58:19;100880.79;;;5.61;88.15
61488;BME280;47351;53.326;-6.298;2023-02-22T04:01:29;100882.36;;;5.61;88.17
61488;BME280;47351;53.326;-6.298;2023-02-22T04:04:38;100881.80;;;5.59;88.07
61488;BME280;47351;53.326;-6.298;2023-02-22T04:07:40;100884.04;;;5.55;87.85
61488;BME280;47351;53.326;-6.298;2023-02-22T04:10:51;100884.66;;;5.54;87.90
61488;BME280;47351;53.326;-6.298;2023-02-22T04:14:00;100885.73;;;5.54;88.04
61488;BME280;47351;53.326;-6.298;2023-02-22T04:17:08;100893.48;;;5.52;88.11
61488;BME280;47351;53.326;-6.298;2023-02-22T04:20:18;100892.08;;;5.50;88.18
61488;BME280;47351;53.326;-6.298;2023-02-22T04:23:36;100896.23;;;5.47;88.26
61488;BME280;47351;53.326;-6.298;2023-02-22T04:26:45;100897.05;;;5.43;88.30
61488;BME280;47351;53.326;-6.298;2023-02-22T04:29:54;100901.37;;;5.38;88.42
61488;BME280;47351;53.326;-6.298;2023-02-22T04:33:03;100905.30;;;5.35;88.64
61488;BME280;47351;53.326;-6.298;2023-02-22T04:36:12;100902.33;;;5.32;88.70
61488;BME280;47351;53.326;-6.298;2023-02-22T04:39:23;100904.14;;;5.32;89.00
61488;BME280;47351;53.326;-6.298;2023-02-22T04:42:31;100909.71;;;5.31;89.06
61488;BME280;47351;53.326;-6.298;2023-02-22T04:45:40;100909.09;;;5.30;88.94
61488;BME280;47351;53.326;-6.298;2023-02-22T04:48:49;100911.45;;;5.29;88.88
61488;BME280;47351;53.326;-6.298;2023-02-22T04:51:58;100924.09;;;5.26;88.69
61488;BME280;47351;53.326;-6.298;2023-02-22T04:55:07;100924.89;;;5.22;88.52
61488;BME280;47351;53.326;-6.298;2023-02-22T04:58:16;100933.64;;;5.19;88.35
61488;BME280;47351;53.326;-6.298;2023-02-22T05:01:26;100939.23;;;5.15;88.09
61488;BME280;47351;53.326;-6.298;2023-02-22T05:04:38;100938.52;;;5.13;87.94
61488;BME280;47351;53.326;-6.298;2023-02-22T05:07:47;100946.17;;;5.12;88.03
61488;BME280;47351;53.326;-6.298;2023-02-22T05:10:47;100953.86;;;5.11;87.73
61488;BME280;47351;53.326;-6.298;2023-02-22T05:13:56;100954.80;;;5.07;87.47
61488;BME280;47351;53.326;-6.298;2023-02-22T05:17:05;100953.42;;;5.05;87.48
61488;BME280;47351;53.326;-6.298;2023-02-22T05:20:16;100962.20;;;5.04;87.26
61488;BME280;47351;53.326;-6.298;2023-02-22T05:23:30;100962.50;;;5.02;87.19
61488;BME280;47351;53.326;-6.298;2023-02-22T05:26:39;100970.02;;;5.01;87.05
61488;BME280;47351;53.326;-6.298;2023-02-22T05:29:48;100971.31;;;5.00;86.90
61488;BME280;47351;53.326;-6.298;2023-02-22T05:32:57;100976.96;;;5.00;86.97
61488;BME280;47351;53.326;-6.298;2023-02-22T05:36:07;100983.98;;;5.03;87.01
61488;BME280;47351;53.326;-6.298;2023-02-22T05:39:17;100984.27;;;5.04;86.79
61488;BME280;47351;53.326;-6.298;2023-02-22T05:42:26;100990.16;;;5.04;86.51
61488;BME280;47351;53.326;-6.298;2023-02-22T05:45:35;100999.80;;;5.02;86.39
61488;BME280;47351;53.326;-6.298;2023-02-22T05:48:43;101003.09;;;5.04;86.52
61488;BME280;47351;53.326;-6.298;2023-02-22T05:51:52;101008.41;;;5.03;86.41
61488;BME280;47351;53.326;-6.298;2023-02-22T05:55:02;101013.65;;;5.02;86.31
61488;BME280;47351;53.326;-6.298;2023-02-22T05:58:12;101012.76;;;5.02;86.26
61488;BME280;47351;53.326;-6.298;2023-02-22T06:01:22;101020.77;;;5.01;86.08
61488;BME280;47351;53.326;-6.298;2023-02-22T06:04:30;101024.34;;;5.01;86.14
61488;BME280;47351;53.326;-6.298;2023-02-22T06:07:39;101023.80;;;5.01;86.10
61488;BME280;47351;53.326;-6.298;2023-02-22T06:10:48;101023.15;;;5.00;86.06
61488;BME280;47351;53.326;-6.298;2023-02-22T06:13:57;101027.05;;;5.00;86.27
61488;BME280;47351;53.326;-6.298;2023-02-22T06:17:06;101031.19;;;4.99;86.15
61488;BME280;47351;53.326;-6.298;2023-02-22T06:20:16;101025.80;;;4.98;86.10
61488;BME280;47351;53.326;-6.298;2023-02-22T06:23:25;101035.59;;;4.95;85.89
61488;BME280;47351;53.326;-6.298;2023-02-22T06:26:34;101043.75;;;4.92;85.90
61488;BME280;47351;53.326;-6.298;2023-02-22T06:29:44;101048.35;;;4.90;85.83
61488;BME280;47351;53.326;-6.298;2023-02-22T06:32:53;101053.02;;;4.86;85.76
61488;BME280;47351;53.326;-6.298;2023-02-22T06:36:02;101057.14;;;4.83;85.71
61488;BME280;47351;53.326;-6.298;2023-02-22T06:39:12;101058.74;;;4.80;85.79
61488;BME280;47351;53.326;-6.298;2023-02-22T06:42:22;101059.20;;;4.77;85.55
61488;BME280;47351;53.326;-6.298;2023-02-22T06:45:31;101064.72;;;4.74;85.67
61488;BME280;47351;53.326;-6.298;2023-02-22T06:48:39;101067.77;;;4.71;85.69
61488;BME280;47351;53.326;-6.298;2023-02-22T06:51:48;101073.19;;;4.67;85.80
61488;BME280;47351;53.326;-6.298;2023-02-22T06:54:57;101073.64;;;4.63;85.92
61488;BME280;47351;53.326;-6.298;2023-02-22T06:58:06;101077.14;;;4.58;85.95
61488;BME280;47351;53.326;-6.298;2023-02-22T07:01:15;101075.44;;;4.55;86.03
61488;BME280;47351;53.326;-6.298;2023-02-22T07:04:24;101079.90;;;4.52;86.12
61488;BME280;47351;53.326;-6.298;2023-02-22T07:07:33;101081.41;;;4.50;86.22
61488;BME280;47351;53.326;-6.298;2023-02-22T07:10:42;101082.54;;;4.47;86.04
61488;BME280;47351;53.326;-6.298;2023-02-22T07:13:51;101084.81;;;4.45;86.22
61488;BME280;47351;53.326;-6.298;2023-02-22T07:16:59;101087.16;;;4.42;86.11
61488;BME280;47351;53.326;-6.298;2023-02-22T07:20:09;101088.05;;;4.37;85.83
61488;BME280;47351;53.326;-6.298;2023-02-22T07:23:18;101088.91;;;4.32;85.84
61488;BME280;47351;53.326;-6.298;2023-02-22T07:26:21;101082.77;;;4.29;85.82
61488;BME280;47351;53.326;-6.298;2023-02-22T07:29:23;101080.70;;;4.26;85.93
61488;BME280;47351;53.326;-6.298;2023-02-22T07:32:32;101085.02;;;4.22;86.02
61488;BME280;47351;53.326;-6.298;2023-02-22T07:35:43;101086.09;;;4.17;86.00
61488;BME280;47351;53.326;-6.298;2023-02-22T07:38:53;101085.57;;;4.12;86.09
61488;BME280;47351;53.326;-6.298;2023-02-22T07:42:02;101085.57;;;4.07;86.12
61488;BME280;47351;53.326;-6.298;2023-02-22T07:45:10;101087.95;;;4.03;86.27
61488;BME280;47351;53.326;-6.298;2023-02-22T07:48:20;101084.02;;;4.01;86.39
61488;BME280;47351;53.326;-6.298;2023-02-22T07:51:29;101079.14;;;4.00;86.42
61488;BME280;47351;53.326;-6.298;2023-02-22T07:54:38;101080.10;;;3.99;86.51
61488;BME280;47351;53.326;-6.298;2023-02-22T07:57:47;101090.14;;;3.99;86.48
61488;BME280;47351;53.326;-6.298;2023-02-22T08:00:57;101098.75;;;4.03;86.56
61488;BME280;47351;53.326;-6.298;2023-02-22T08:04:06;101110.02;;;4.06;86.37
61488;BME280;47351;53.326;-6.298;2023-02-22T08:07:15;101117.55;;;4.12;86.28
61488;BME280;47351;53.326;-6.298;2023-02-22T08:10:24;101126.62;;;4.16;85.96
61488;BME280;47351;53.326;-6.298;2023-02-22T08:13:33;101133.34;;;4.21;85.88
61488;BME280;47351;53.326;-6.298;2023-02-22T08:16:44;101133.67;;;4.27;85.64
61488;BME280;47351;53.326;-6.298;2023-02-22T08:19:53;101134.16;;;4.27;85.55
61488;BME280;47351;53.326;-6.298;2023-02-22T08:23:03;101139.88;;;4.29;85.47
61488;BME280;47351;53.326;-6.298;2023-02-22T08:26:12;101153.55;;;4.35;85.35
61488;BME280;47351;53.326;-6.298;2023-02-22T08:29:17;101158.30;;;4.46;85.13
61488;BME280;47351;53.326;-6.298;2023-02-22T08:32:26;101159.87;;;4.53;84.83
61488;BME280;47351;53.326;-6.298;2023-02-22T08:35:35;101164.27;;;4.56;84.70
61488;BME280;47351;53.326;-6.298;2023-02-22T08:38:44;101163.27;;;4.58;84.44
61488;BME280;47351;53.326;-6.298;2023-02-22T08:41:53;101164.72;;;4.60;84.18
61488;BME280;47351;53.326;-6.298;2023-02-22T08:45:01;101161.87;;;4.60;84.04
61488;BME280;47351;53.326;-6.298;2023-02-22T08:48:11;101163.45;;;4.58;83.88
61488;BME280;47351;53.326;-6.298;2023-02-22T08:51:20;101163.36;;;4.56;83.84
61488;BME280;47351;53.326;-6.298;2023-02-22T08:54:29;101168.96;;;4.57;83.87
61488;BME280;47351;53.326;-6.298;2023-02-22T08:57:38;101174.55;;;4.61;83.59
61488;BME280;47351;53.326;-6.298;2023-02-22T09:00:47;101174.08;;;4.65;83.33
61488;BME280;47351;53.326;-6.298;2023-02-22T09:03:56;101169.17;;;4.70;82.99
61488;BME280;47351;53.326;-6.298;2023-02-22T09:07:05;101171.29;;;4.72;82.61
61488;BME280;47351;53.326;-6.298;2023-02-22T09:10:14;101171.45;;;4.75;82.44
61488;BME280;47351;53.326;-6.298;2023-02-22T09:13:23;101173.80;;;4.84;82.52
61488;BME280;47351;53.326;-6.298;2023-02-22T09:16:33;101173.52;;;4.93;82.01
61488;BME280;47351;53.326;-6.298;2023-02-22T09:23:47;101183.77;;;5.13;81.49
61488;BME280;47351;53.326;-6.298;2023-02-22T09:26:56;101188.30;;;5.21;81.46
61488;BME280;47351;53.326;-6.298;2023-02-22T09:30:07;101196.76;;;5.29;81.30
61488;BME280;47351;53.326;-6.298;2023-02-22T09:33:21;101197.04;;;5.34;81.02
61488;BME280;47351;53.326;-6.298;2023-02-22T09:36:22;101189.67;;;5.33;80.59
61488;BME280;47351;53.326;-6.298;2023-02-22T09:39:34;101187.92;;;5.33;80.44
61488;BME280;47351;53.326;-6.298;2023-02-22T09:42:46;101187.70;;;5.33;80.40
61488;BME280;47351;53.326;-6.298;2023-02-22T09:46:02;101185.27;;;5.38;80.35
61488;BME280;47351;53.326;-6.298;2023-02-22T09:49:17;101190.70;;;5.46;80.27
61488;BME280;47351;53.326;-6.298;2023-02-22T09:52:13;101197.62;;;5.53;79.92
61488;BME280;47351;53.326;-6.298;2023-02-22T09:55:27;101205.77;;;5.57;79.54
61488;BME280;47351;53.326;-6.298;2023-02-22T09:58:42;101214.55;;;5.63;79.54
61488;BME280;47351;53.326;-6.298;2023-02-22T10:01:54;101218.63;;;5.70;79.40
61488;BME280;47351;53.326;-6.298;2023-02-22T10:05:07;101213.52;;;5.77;78.80
61488;BME280;47351;53.326;-6.298;2023-02-22T10:08:12;101213.01;;;5.84;78.20
61488;BME280;47351;53.326;-6.298;2023-02-22T10:11:26;101215.10;;;5.96;78.36
61488;BME280;47351;53.326;-6.298;2023-02-22T10:14:45;101214.21;;;6.11;78.04
61488;BME280;47351;53.326;-6.298;2023-02-22T10:17:59;101215.54;;;6.30;77.17
61488;BME280;47351;53.326;-6.298;2023-02-22T10:21:45;101221.35;;;6.54;76.23
61488;BME280;47351;53.326;-6.298;2023-02-22T10:24:59;101224.48;;;6.70;75.81
61488;BME280;47351;53.326;-6.298;2023-02-22T10:32:14;101228.23;;;7.04;74.22
61488;BME280;47351;53.326;-6.298;2023-02-22T10:35:08;101230.66;;;7.26;73.71
61488;BME280;47351;53.326;-6.298;2023-02-22T10:38:12;101237.49;;;7.49;73.59
61488;BME280;47351;53.326;-6.298;2023-02-22T10:41:18;101243.25;;;7.68;72.28
61488;BME280;47351;53.326;-6.298;2023-02-22T10:44:28;101244.37;;;7.78;71.23
61488;BME280;47351;53.326;-6.298;2023-02-22T10:47:40;101240.47;;;7.78;70.02
61488;BME280;47351;53.326;-6.298;2023-02-22T10:50:43;101239.63;;;7.82;69.87
61488;BME280;47351;53.326;-6.298;2023-02-22T10:53:55;101244.59;;;7.97;70.32
61488;BME280;47351;53.326;-6.298;2023-02-22T10:57:06;101250.83;;;8.16;70.10
61488;BME280;47351;53.326;-6.298;2023-02-22T10:59:58;101243.66;;;8.42;69.70
61488;BME280;47351;53.326;-6.298;2023-02-22T11:03:01;101248.95;;;8.61;69.00
61488;BME280;47351;53.326;-6.298;2023-02-22T11:05:50;101247.45;;;8.95;67.95
61488;BME280;47351;53.326;-6.298;2023-02-22T11:08:41;101248.58;;;9.52;67.66
61488;BME280;47351;53.326;-6.298;2023-02-22T11:11:40;101243.09;;;10.26;66.84
61488;BME280;47351;53.326;-6.298;2023-02-22T11:14:29;101237.80;;;11.26;64.53
61488;BME280;47351;53.326;-6.298;2023-02-22T11:17:20;101232.26;;;11.74;63.17
61488;BME280;47351;53.326;-6.298;2023-02-22T11:20:17;101236.10;;;11.98;61.85
61488;BME280;47351;53.326;-6.298;2023-02-22T11:23:22;101232.66;;;11.97;60.12
61488;BME280;47351;53.326;-6.298;2023-02-22T11:26:12;101238.63;;;11.83;59.28
61488;BME280;47351;53.326;-6.298;2023-02-22T11:29:09;101244.54;;;11.83;59.09
61488;BME280;47351;53.326;-6.298;2023-02-22T11:31:59;101244.52;;;11.93;58.50
61488;BME280;47351;53.326;-6.298;2023-02-22T11:34:56;101252.08;;;11.89;57.92
61488;BME280;47351;53.326;-6.298;2023-02-22T11:38:13;101255.42;;;11.67;58.05
61488;BME280;47351;53.326;-6.298;2023-02-22T11:41:26;101256.94;;;11.43;58.30
61488;BME280;47351;53.326;-6.298;2023-02-22T11:44:21;101259.86;;;11.33;58.36
61488;BME280;47351;53.326;-6.298;2023-02-22T11:47:10;101260.00;;;11.37;57.95
61488;BME280;47351;53.326;-6.298;2023-02-22T11:50:26;101262.55;;;11.33;57.60
61488;BME280;47351;53.326;-6.298;2023-02-22T11:53:31;101268.69;;;11.38;58.15
61488;BME280;47351;53.326;-6.298;2023-02-22T11:56:35;101272.35;;;11.40;57.72
61488;BME280;47351;53.326;-6.298;2023-02-22T11:59:28;101273.52;;;11.28;57.50
61488;BME280;47351;53.326;-6.298;2023-02-22T12:02:34;101280.63;;;11.12;57.97
61488;BME280;47351;53.326;-6.298;2023-02-22T12:05:47;101286.34;;;10.88;58.04
61488;BME280;47351;53.326;-6.298;2023-02-22T12:09:08;101288.33;;;10.54;58.27
61488;BME280;47351;53.326;-6.298;2023-02-22T12:12:13;101291.90;;;10.42;58.18
61488;BME280;47351;53.326;-6.298;2023-02-22T12:15:05;101293.90;;;10.70;57.92
61488;BME280;47351;53.326;-6.298;2023-02-22T12:18:01;101290.17;;;11.59;56.05
61488;BME280;47351;53.326;-6.298;2023-02-22T12:20:54;101290.01;;;11.65;55.20
61488;BME280;47351;53.326;-6.298;2023-02-22T12:23:53;101291.73;;;11.54;55.60
61488;BME280;47351;53.326;-6.298;2023-02-22T12:26:47;101295.84;;;11.47;54.98
61488;BME280;47351;53.326;-6.298;2023-02-22T12:29:37;101294.70;;;11.36;55.13
61488;BME280;47351;53.326;-6.298;2023-02-22T12:32:35;101290.63;;;11.49;54.31
61488;BME280;47351;53.326;-6.298;2023-02-22T12:35:28;101287.50;;;12.70;54.18
61488;BME280;47351;53.326;-6.298;2023-02-22T12:38:21;101290.31;;;13.20;52.56
61488;BME280;47351;53.326;-6.298;2023-02-22T12:41:14;101289.70;;;12.85;52.07
61488;BME280;47351;53.326;-6.298;2023-02-22T12:44:13;101294.33;;;12.48;52.82
61488;BME280;47351;53.326;-6.298;2023-02-22T12:47:04;101297.23;;;12.22;52.70
61488;BME280;47351;53.326;-6.298;2023-02-22T12:49:56;101300.52;;;11.89;52.62
61488;BME280;47351;53.326;-6.298;2023-02-22T12:52:48;101304.26;;;11.54;53.23
61488;BME280;47351;53.326;-6.298;2023-02-22T12:55:41;101302.86;;;11.48;54.58
61488;BME280;47351;53.326;-6.298;2023-02-22T12:58:34;101303.93;;;11.63;55.23
61488;BME280;47351;53.326;-6.298;2023-02-22T13:01:24;101304.36;;;11.97;53.81
61488;BME280;47351;53.326;-6.298;2023-02-22T13:04:16;101302.54;;;12.01;53.91
61488;BME280;47351;53.326;-6.298;2023-02-22T13:07:22;101304.47;;;11.63;54.53
61488;BME280;47351;53.326;-6.298;2023-02-22T13:10:34;101309.42;;;11.27;54.04
61488;BME280;47351;53.326;-6.298;2023-02-22T13:13:30;101320.50;;;10.82;54.10
61488;BME280;47351;53.326;-6.298;2023-02-22T13:16:25;101319.78;;;10.53;54.35
61488;BME280;47351;53.326;-6.298;2023-02-22T13:19:37;101322.58;;;10.31;54.38
61488;BME280;47351;53.326;-6.298;2023-02-22T13:22:35;101321.93;;;10.24;54.58
61488;BME280;47351;53.326;-6.298;2023-02-22T13:25:37;101327.85;;;10.35;55.05
61488;BME280;47351;53.326;-6.298;2023-02-22T13:28:29;101331.58;;;10.47;54.35
61488;BME280;47351;53.326;-6.298;2023-02-22T13:31:27;101333.66;;;10.63;54.29
61488;BME280;47351;53.326;-6.298;2023-02-22T13:37:39;101333.33;;;10.65;54.56
61488;BME280;47351;53.326;-6.298;2023-02-22T13:40:40;101340.17;;;10.45;55.27
61488;BME280;47351;53.326;-6.298;2023-02-22T13:46:43;101342.77;;;9.75;55.86
61488;BME280;47351;53.326;-6.298;2023-02-22T13:50:07;101346.85;;;9.37;56.56
61488;BME280;47351;53.326;-6.298;2023-02-22T13:53:31;101346.02;;;9.18;57.17
61488;BME280;47351;53.326;-6.298;2023-02-22T13:56:27;101349.48;;;9.09;57.10
61488;BME280;47351;53.326;-6.298;2023-02-22T13:59:31;101353.18;;;9.05;57.60
61488;BME280;47351;53.326;-6.298;2023-02-22T14:02:33;101358.62;;;9.06;57.78
61488;BME280;47351;53.326;-6.298;2023-02-22T14:05:52;101362.33;;;9.07;57.86
61488;BME280;47351;53.326;-6.298;2023-02-22T14:08:49;101363.69;;;9.03;58.06
61488;BME280;47351;53.326;-6.298;2023-02-22T14:11:59;101364.66;;;9.04;58.29
61488;BME280;47351;53.326;-6.298;2023-02-22T14:21:33;101369.96;;;9.15;58.27
61488;BME280;47351;53.326;-6.298;2023-02-22T14:24:22;101368.88;;;9.19;58.27
61488;BME280;47351;53.326;-6.298;2023-02-22T14:27:13;101368.70;;;9.25;58.43
61488;BME280;47351;53.326;-6.298;2023-02-22T14:30:04;101369.45;;;9.33;58.41
61488;BME280;47351;53.326;-6.298;2023-02-22T14:36:32;101376.29;;;9.43;58.47
61488;BME280;47351;53.326;-6.298;2023-02-22T14:39:42;101376.37;;;9.44;58.58
61488;BME280;47351;53.326;-6.298;2023-02-22T14:43:00;101377.32;;;9.47;58.73
61488;BME280;47351;53.326;-6.298;2023-02-22T14:46:04;101380.45;;;9.50;58.60
61488;BME280;47351;53.326;-6.298;2023-02-22T14:49:16;101382.41;;;9.50;58.64
61488;BME280;47351;53.326;-6.298;2023-02-22T14:52:22;101384.09;;;9.47;58.34
61488;BME280;47351;53.326;-6.298;2023-02-22T14:55:22;101386.42;;;9.49;58.55
61488;BME280;47351;53.326;-6.298;2023-02-22T14:58:35;101386.21;;;9.60;58.62
61488;BME280;47351;53.326;-6.298;2023-02-22T15:01:45;101387.14;;;9.65;58.24
61488;BME280;47351;53.326;-6.298;2023-02-22T15:04:55;101388.55;;;9.65;58.28
61488;BME280;47351;53.326;-6.298;2023-02-22T15:07:50;101391.16;;;9.66;58.09
61488;BME280;47351;53.326;-6.298;2023-02-22T15:10:57;101394.57;;;9.60;57.66
61488;BME280;47351;53.326;-6.298;2023-02-22T15:13:59;101398.42;;;9.59;57.78
61488;BME280;47351;53.326;-6.298;2023-02-22T15:16:51;101398.14;;;9.62;57.41
61488;BME280;47351;53.326;-6.298;2023-02-22T15:19:40;101396.02;;;9.78;56.91
61488;BME280;47351;53.326;-6.298;2023-02-22T15:22:50;101396.60;;;10.21;56.57
61488;BME280;47351;53.326;-6.298;2023-02-22T15:26:00;101399.17;;;10.55;56.03
61488;BME280;47351;53.326;-6.298;2023-02-22T15:29:12;101402.30;;;10.43;55.55
61488;BME280;47351;53.326;-6.298;2023-02-22T15:32:18;101404.29;;;10.27;55.90
61488;BME280;47351;53.326;-6.298;2023-02-22T15:35:14;101404.57;;;10.13;56.23
61488;BME280;47351;53.326;-6.298;2023-02-22T15:38:20;101401.16;;;9.96;55.69
61488;BME280;47351;53.326;-6.298;2023-02-22T15:41:19;101405.45;;;9.84;55.77
61488;BME280;47351;53.326;-6.298;2023-02-22T15:44:19;101402.80;;;10.07;55.82
61488;BME280;47351;53.326;-6.298;2023-02-22T15:47:29;101408.84;;;10.48;55.34
61488;BME280;47351;53.326;-6.298;2023-02-22T15:50:50;101410.09;;;10.80;54.65
61488;BME280;47351;53.326;-6.298;2023-02-22T15:53:54;101411.30;;;11.06;54.56
61488;BME280;47351;53.326;-6.298;2023-02-22T15:56:48;101413.34;;;11.09;54.07
61488;BME280;47351;53.326;-6.298;2023-02-22T15:59:43;101415.17;;;10.80;53.23
61488;BME280;47351;53.326;-6.298;2023-02-22T16:02:34;101410.30;;;10.49;53.51
61488;BME280;47351;53.326;-6.298;2023-02-22T16:05:29;101414.78;;;10.41;53.61
61488;BME280;47351;53.326;-6.298;2023-02-22T16:08:20;101417.32;;;10.39;53.98
61488;BME280;47351;53.326;-6.298;2023-02-22T16:11:31;101416.70;;;10.40;54.02
61488;BME280;47351;53.326;-6.298;2023-02-22T16:14:41;101421.77;;;10.33;54.08
61488;BME280;47351;53.326;-6.298;2023-02-22T16:17:35;101418.44;;;10.14;54.46
61488;BME280;47351;53.326;-6.298;2023-02-22T16:20:44;101428.20;;;9.83;54.89
61488;BME280;47351;53.326;-6.298;2023-02-22T16:23:54;101441.50;;;9.38;55.32
61488;BME280;47351;53.326;-6.298;2023-02-22T16:27:05;101459.30;;;8.93;56.38
61488;BME280;47351;53.326;-6.298;2023-02-22T16:30:22;101462.74;;;8.49;57.70
61488;BME280;47351;53.326;-6.298;2023-02-22T16:33:22;101464.84;;;8.16;58.74
61488;BME280;47351;53.326;-6.298;2023-02-22T16:36:38;101466.55;;;7.96;59.63
61488;BME280;47351;53.326;-6.298;2023-02-22T16:39:47;101470.43;;;7.91;60.47
61488;BME280;47351;53.326;-6.298;2023-02-22T16:42:59;101476.94;;;7.95;60.95
61488;BME280;47351;53.326;-6.298;2023-02-22T16:46:10;101481.19;;;7.95;61.27